sensor_id;sensor_type;location;lat;lon;timestamp;P1;durP1;ratioP1;P2;durP2;ratioP2
19778;SDS011;10049;59.306;18.090;2022-09-03T00:00:32;0.40;;;0.40;;
19778;SDS011;10049;59.306;18.090;2022-09-03T00:14:10;2.50;;;0.50;;
19778;SDS011;10049;59.306;18.090;2022-09-03T00:16:59;0.70;;;0.40;;
19778;SDS011;10049;59.306;18.090;2022-09-03T00:22:31;1.30;;;0.40;;
19778;SDS011;10049;59.306;18.090;2022-09-03T00:25:21;2.95;;;0.70;;
19778;SDS011;10049;59.306;18.090;2022-09-03T00:27:55;0.57;;;0.40;;
19778;SDS011;10049;59.306;18.090;2022-09-03T00:30:30;0.47;;;0.40;;
19778;SDS011;10049;59.306;18.090;2022-09-03T00:36:02;0.30;;;0.30;;
19778;SDS011;10049;59.306;18.090;2022-09-03T00:38:39;2.08;;;0.47;;
19778;SDS011;10049;59.306;18.090;2022-09-03T00:41:22;1.80;;;0.40;;
19778;SDS011;10049;59.306;18.090;2022-09-03T00:44:08;0.40;;;0.40;;
19778;SDS011;10049;59.306;18.090;2022-09-03T00:46:53;1.27;;;0.60;;
19778;SDS011;10049;59.306;18.090;2022-09-03T00:49:25;0.65;;;0.40;;
19778;SDS011;10049;59.306;18.090;2022-09-03T00:52:34;1.23;;;0.40;;
19778;SDS011;10049;59.306;18.090;2022-09-03T00:55:41;0.45;;;0.40;;
19778;SDS011;10049;59.306;18.090;2022-09-03T01:01:17;1.92;;;1.02;;
19778;SDS011;10049;59.306;18.090;2022-09-03T01:03:54;1.70;;;0.90;;
19778;SDS011;10049;59.306;18.090;2022-09-03T01:06:23;2.47;;;0.90;;
19778;SDS011;10049;59.306;18.090;2022-09-03T01:12:11;2.55;;;0.70;;
19778;SDS011;10049;59.306;18.090;2022-09-03T01:14:48;4.05;;;0.70;;
19778;SDS011;10049;59.306;18.090;2022-09-03T01:17:28;4.32;;;0.70;;
19778;SDS011;10049;59.306;18.090;2022-09-03T01:20:13;1.35;;;0.70;;
19778;SDS011;10049;59.306;18.090;2022-09-03T01:28:48;3.20;;;0.80;;
19778;SDS011;10049;59.306;18.090;2022-09-03T01:31:34;1.52;;;0.70;;
19778;SDS011;10049;59.306;18.090;2022-09-03T01:34:15;1.42;;;0.70;;
19778;SDS011;10049;59.306;18.090;2022-09-03T01:37:05;5.63;;;0.80;;
19778;SDS011;10049;59.306;18.090;2022-09-03T01:40:04;1.45;;;0.80;;
19778;SDS011;10049;59.306;18.090;2022-09-03T01:42:56;4.38;;;0.80;;
19778;SDS011;10049;59.306;18.090;2022-09-03T01:45:48;3.22;;;0.80;;
19778;SDS011;10049;59.306;18.090;2022-09-03T01:48:29;2.10;;;0.90;;
19778;SDS011;10049;59.306;18.090;2022-09-03T01:51:20;2.38;;;0.90;;
19778;SDS011;10049;59.306;18.090;2022-09-03T01:57:03;2.08;;;0.95;;
19778;SDS011;10049;59.306;18.090;2022-09-03T01:59:55;1.10;;;0.70;;
19778;SDS011;10049;59.306;18.090;2022-09-03T02:06:11;2.17;;;0.70;;
19778;SDS011;10049;59.306;18.090;2022-09-03T02:08:59;0.80;;;0.70;;
19778;SDS011;10049;59.306;18.090;2022-09-03T02:11:31;6.07;;;0.82;;
19778;SDS011;10049;59.306;18.090;2022-09-03T02:14:05;2.08;;;0.80;;
19778;SDS011;10049;59.306;18.090;2022-09-03T02:16:33;3.90;;;0.80;;
19778;SDS011;10049;59.306;18.090;2022-09-03T02:19:10;0.55;;;0.55;;
19778;SDS011;10049;59.306;18.090;2022-09-03T02:22:02;0.70;;;0.70;;
19778;SDS011;10049;59.306;18.090;2022-09-03T02:24:42;1.65;;;1.00;;
19778;SDS011;10049;59.306;18.090;2022-09-03T02:27:42;1.50;;;0.80;;
19778;SDS011;10049;59.306;18.090;2022-09-03T02:30:23;3.25;;;0.80;;
19778;SDS011;10049;59.306;18.090;2022-09-03T02:33:20;0.70;;;0.60;;
19778;SDS011;10049;59.306;18.090;2022-09-03T02:35:50;0.50;;;0.50;;
19778;SDS011;10049;59.306;18.090;2022-09-03T02:41:36;1.60;;;0.60;;
19778;SDS011;10049;59.306;18.090;2022-09-03T02:44:17;1.38;;;0.68;;
19778;SDS011;10049;59.306;18.090;2022-09-03T02:49:40;2.58;;;0.40;;
19778;SDS011;10049;59.306;18.090;2022-09-03T02:52:25;3.30;;;0.40;;
19778;SDS011;10049;59.306;18.090;2022-09-03T02:54:57;0.30;;;0.30;;
19778;SDS011;10049;59.306;18.090;2022-09-03T03:06:12;0.20;;;0.20;;
19778;SDS011;10049;59.306;18.090;2022-09-03T03:08:47;0.50;;;0.40;;
19778;SDS011;10049;59.306;18.090;2022-09-03T03:11:25;0.30;;;0.30;;
19778;SDS011;10049;59.306;18.090;2022-09-03T03:16:44;2.38;;;0.40;;
19778;SDS011;10049;59.306;18.090;2022-09-03T03:19:28;0.47;;;0.47;;
19778;SDS011;10049;59.306;18.090;2022-09-03T03:22:20;1.98;;;0.63;;
19778;SDS011;10049;59.306;18.090;2022-09-03T03:28:12;0.43;;;0.43;;
19778;SDS011;10049;59.306;18.090;2022-09-03T03:30:46;2.85;;;0.50;;
19778;SDS011;10049;59.306;18.090;2022-09-03T03:33:26;0.45;;;0.30;;
19778;SDS011;10049;59.306;18.090;2022-09-03T03:39:09;2.88;;;0.40;;
19778;SDS011;10049;59.306;18.090;2022-09-03T03:41:57;0.43;;;0.30;;
19778;SDS011;10049;59.306;18.090;2022-09-03T03:44:38;1.20;;;0.40;;
19778;SDS011;10049;59.306;18.090;2022-09-03T03:52:41;0.30;;;0.30;;
19778;SDS011;10049;59.306;18.090;2022-09-03T03:56:03;0.40;;;0.40;;
19778;SDS011;10049;59.306;18.090;2022-09-03T03:58:49;0.50;;;0.40;;
19778;SDS011;10049;59.306;18.090;2022-09-03T04:01:19;0.30;;;0.30;;
19778;SDS011;10049;59.306;18.090;2022-09-03T04:04:00;1.02;;;0.40;;
19778;SDS011;10049;59.306;18.090;2022-09-03T04:07:11;0.40;;;0.40;;
19778;SDS011;10049;59.306;18.090;2022-09-03T04:09:59;0.75;;;0.45;;
19778;SDS011;10049;59.306;18.090;2022-09-03T04:12:32;1.17;;;0.60;;
19778;SDS011;10049;59.306;18.090;2022-09-03T04:15:05;0.52;;;0.40;;
19778;SDS011;10049;59.306;18.090;2022-09-03T04:17:33;0.73;;;0.50;;
19778;SDS011;10049;59.306;18.090;2022-09-03T04:20:21;3.05;;;0.60;;
19778;SDS011;10049;59.306;18.090;2022-09-03T04:22:50;0.45;;;0.45;;
19778;SDS011;10049;59.306;18.090;2022-09-03T04:25:18;1.33;;;0.40;;
19778;SDS011;10049;59.306;18.090;2022-09-03T04:28:13;0.40;;;0.40;;
19778;SDS011;10049;59.306;18.090;2022-09-03T04:30:41;0.40;;;0.40;;
19778;SDS011;10049;59.306;18.090;2022-09-03T04:33:26;2.60;;;0.40;;
19778;SDS011;10049;59.306;18.090;2022-09-03T04:36:12;0.30;;;0.30;;
19778;SDS011;10049;59.306;18.090;2022-09-03T04:38:48;0.30;;;0.30;;
19778;SDS011;10049;59.306;18.090;2022-09-03T04:41:34;0.95;;;0.50;;
19778;SDS011;10049;59.306;18.090;2022-09-03T04:44:12;0.43;;;0.43;;
19778;SDS011;10049;59.306;18.090;2022-09-03T04:46:46;0.30;;;0.30;;
19778;SDS011;10049;59.306;18.090;2022-09-03T04:49:22;0.40;;;0.30;;
19778;SDS011;10049;59.306;18.090;2022-09-03T04:52:07;0.50;;;0.50;;
19778;SDS011;10049;59.306;18.090;2022-09-03T04:54:36;1.90;;;0.35;;
19778;SDS011;10049;59.306;18.090;2022-09-03T04:57:15;0.30;;;0.30;;
19778;SDS011;10049;59.306;18.090;2022-09-03T04:59:56;1.45;;;0.45;;
19778;SDS011;10049;59.306;18.090;2022-09-03T05:02:47;0.35;;;0.30;;
19778;SDS011;10049;59.306;18.090;2022-09-03T05:05:23;0.45;;;0.30;;
19778;SDS011;10049;59.306;18.090;2022-09-03T05:07:50;8.05;;;0.43;;
19778;SDS011;10049;59.306;18.090;2022-09-03T05:10:21;0.30;;;0.30;;
19778;SDS011;10049;59.306;18.090;2022-09-03T05:12:56;2.42;;;0.30;;
19778;SDS011;10049;59.306;18.090;2022-09-03T05:15:32;0.25;;;0.25;;
19778;SDS011;10049;59.306;18.090;2022-09-03T05:21:31;0.22;;;0.22;;
19778;SDS011;10049;59.306;18.090;2022-09-03T05:24:17;0.20;;;0.20;;
19778;SDS011;10049;59.306;18.090;2022-09-03T05:26:49;0.40;;;0.30;;
19778;SDS011;10049;59.306;18.090;2022-09-03T05:29:16;0.43;;;0.20;;
19778;SDS011;10049;59.306;18.090;2022-09-03T05:31:56;0.30;;;0.30;;
19778;SDS011;10049;59.306;18.090;2022-09-03T05:34:56;0.45;;;0.40;;
19778;SDS011;10049;59.306;18.090;2022-09-03T05:37:25;0.20;;;0.20;;
19778;SDS011;10049;59.306;18.090;2022-09-03T05:43:03;0.10;;;0.10;;
19778;SDS011;10049;59.306;18.090;2022-09-03T05:45:35;0.75;;;0.40;;
19778;SDS011;10049;59.306;18.090;2022-09-03T05:48:11;0.32;;;0.20;;
19778;SDS011;10049;59.306;18.090;2022-09-03T05:50:39;4.78;;;0.32;;
19778;SDS011;10049;59.306;18.090;2022-09-03T05:53:09;2.08;;;0.30;;
19778;SDS011;10049;59.306;18.090;2022-09-03T05:55:36;0.40;;;0.38;;
19778;SDS011;10049;59.306;18.090;2022-09-03T05:58:04;0.43;;;0.30;;
19778;SDS011;10049;59.306;18.090;2022-09-03T06:00:31;0.70;;;0.30;;
19778;SDS011;10049;59.306;18.090;2022-09-03T06:03:01;0.43;;;0.22;;
19778;SDS011;10049;59.306;18.090;2022-09-03T06:05:30;0.20;;;0.20;;
19778;SDS011;10049;59.306;18.090;2022-09-03T06:08:00;3.95;;;0.25;;
19778;SDS011;10049;59.306;18.090;2022-09-03T06:10:28;0.28;;;0.20;;
19778;SDS011;10049;59.306;18.090;2022-09-03T06:12:56;0.20;;;0.20;;
19778;SDS011;10049;59.306;18.090;2022-09-03T06:15:25;0.20;;;0.20;;
19778;SDS011;10049;59.306;18.090;2022-09-03T06:17:52;0.30;;;0.30;;
19778;SDS011;10049;59.306;18.090;2022-09-03T06:20:20;0.40;;;0.30;;
19778;SDS011;10049;59.306;18.090;2022-09-03T06:22:58;0.30;;;0.30;;
19778;SDS011;10049;59.306;18.090;2022-09-03T06:25:25;0.25;;;0.20;;
19778;SDS011;10049;59.306;18.090;2022-09-03T06:27:56;0.80;;;0.30;;
19778;SDS011;10049;59.306;18.090;2022-09-03T06:30:25;0.25;;;0.20;;
19778;SDS011;10049;59.306;18.090;2022-09-03T06:32:55;1.42;;;0.40;;
19778;SDS011;10049;59.306;18.090;2022-09-03T06:35:32;1.05;;;0.70;;
19778;SDS011;10049;59.306;18.090;2022-09-03T06:38:03;0.68;;;0.57;;
19778;SDS011;10049;59.306;18.090;2022-09-03T06:40:31;0.60;;;0.50;;
19778;SDS011;10049;59.306;18.090;2022-09-03T06:43:13;2.08;;;0.40;;
19778;SDS011;10049;59.306;18.090;2022-09-03T06:48:48;0.50;;;0.50;;
19778;SDS011;10049;59.306;18.090;2022-09-03T06:51:19;0.32;;;0.30;;
19778;SDS011;10049;59.306;18.090;2022-09-03T06:53:58;0.32;;;0.32;;
19778;SDS011;10049;59.306;18.090;2022-09-03T06:56:42;0.95;;;0.40;;
19778;SDS011;10049;59.306;18.090;2022-09-03T06:59:27;0.20;;;0.20;;
19778;SDS011;10049;59.306;18.090;2022-09-03T07:02:01;0.20;;;0.20;;
19778;SDS011;10049;59.306;18.090;2022-09-03T07:04:49;0.20;;;0.20;;
19778;SDS011;10049;59.306;18.090;2022-09-03T07:07:57;0.40;;;0.20;;
19778;SDS011;10049;59.306;18.090;2022-09-03T07:10:31;0.43;;;0.20;;
19778;SDS011;10049;59.306;18.090;2022-09-03T07:13:12;0.22;;;0.22;;
19778;SDS011;10049;59.306;18.090;2022-09-03T07:15:43;0.30;;;0.30;;
19778;SDS011;10049;59.306;18.090;2022-09-03T07:21:38;0.50;;;0.25;;
19778;SDS011;10049;59.306;18.090;2022-09-03T07:24:25;0.20;;;0.20;;
19778;SDS011;10049;59.306;18.090;2022-09-03T07:27:15;0.32;;;0.25;;
19778;SDS011;10049;59.306;18.090;2022-09-03T07:30:04;0.20;;;0.20;;
19778;SDS011;10049;59.306;18.090;2022-09-03T07:32:45;0.20;;;0.20;;
19778;SDS011;10049;59.306;18.090;2022-09-03T07:35:16;0.20;;;0.20;;
19778;SDS011;10049;59.306;18.090;2022-09-03T07:37:43;0.55;;;0.30;;
19778;SDS011;10049;59.306;18.090;2022-09-03T07:40:11;0.40;;;0.30;;
19778;SDS011;10049;59.306;18.090;2022-09-03T07:42:45;0.85;;;0.40;;
19778;SDS011;10049;59.306;18.090;2022-09-03T07:45:13;0.80;;;0.57;;
19778;SDS011;10049;59.306;18.090;2022-09-03T07:47:48;1.88;;;0.63;;
19778;SDS011;10049;59.306;18.090;2022-09-03T07:50:29;1.23;;;0.80;;
19778;SDS011;10049;59.306;18.090;2022-09-03T07:53:03;1.25;;;0.70;;
19778;SDS011;10049;59.306;18.090;2022-09-03T07:55:32;0.63;;;0.40;;
19778;SDS011;10049;59.306;18.090;2022-09-03T07:58:02;0.85;;;0.40;;
19778;SDS011;10049;59.306;18.090;2022-09-03T08:00:41;0.20;;;0.20;;
19778;SDS011;10049;59.306;18.090;2022-09-03T08:03:27;1.10;;;0.30;;
19778;SDS011;10049;59.306;18.090;2022-09-03T08:05:54;0.40;;;0.30;;
19778;SDS011;10049;59.306;18.090;2022-09-03T08:08:29;0.43;;;0.32;;
19778;SDS011;10049;59.306;18.090;2022-09-03T08:11:02;0.20;;;0.20;;
19778;SDS011;10049;59.306;18.090;2022-09-03T08:13:39;0.20;;;0.20;;
19778;SDS011;10049;59.306;18.090;2022-09-03T08:16:08;0.20;;;0.20;;
19778;SDS011;10049;59.306;18.090;2022-09-03T08:18:37;0.20;;;0.20;;
19778;SDS011;10049;59.306;18.090;2022-09-03T08:21:05;0.20;;;0.20;;
19778;SDS011;10049;59.306;18.090;2022-09-03T08:23:36;0.52;;;0.47;;
19778;SDS011;10049;59.306;18.090;2022-09-03T08:26:05;1.63;;;0.38;;
19778;SDS011;10049;59.306;18.090;2022-09-03T08:31:42;0.20;;;0.20;;
19778;SDS011;10049;59.306;18.090;2022-09-03T08:34:11;0.20;;;0.20;;
19778;SDS011;10049;59.306;18.090;2022-09-03T08:36:49;0.60;;;0.40;;
19778;SDS011;10049;59.306;18.090;2022-09-03T08:39:38;0.50;;;0.45;;
19778;SDS011;10049;59.306;18.090;2022-09-03T08:42:32;0.65;;;0.32;;
19778;SDS011;10049;59.306;18.090;2022-09-03T08:45:05;0.40;;;0.40;;
19778;SDS011;10049;59.306;18.090;2022-09-03T08:47:51;1.20;;;0.30;;
19778;SDS011;10049;59.306;18.090;2022-09-03T08:50:25;0.73;;;0.30;;
19778;SDS011;10049;59.306;18.090;2022-09-03T08:52:54;0.10;;;0.10;;
19778;SDS011;10049;59.306;18.090;2022-09-03T08:55:25;0.10;;;0.10;;
19778;SDS011;10049;59.306;18.090;2022-09-03T08:57:55;0.20;;;0.20;;
19778;SDS011;10049;59.306;18.090;2022-09-03T09:00:26;0.20;;;0.20;;
19778;SDS011;10049;59.306;18.090;2022-09-03T09:03:19;0.20;;;0.20;;
19778;SDS011;10049;59.306;18.090;2022-09-03T09:09:02;0.20;;;0.20;;
19778;SDS011;10049;59.306;18.090;2022-09-03T09:11:44;0.63;;;0.28;;
19778;SDS011;10049;59.306;18.090;2022-09-03T09:14:16;0.17;;;0.17;;
19778;SDS011;10049;59.306;18.090;2022-09-03T09:16:46;0.60;;;0.20;;
19778;SDS011;10049;59.306;18.090;2022-09-03T09:19:22;0.60;;;0.30;;
19778;SDS011;10049;59.306;18.090;2022-09-03T09:21:55;0.75;;;0.63;;
19778;SDS011;10049;59.306;18.090;2022-09-03T09:24:25;0.55;;;0.50;;
19778;SDS011;10049;59.306;18.090;2022-09-03T09:26:54;0.82;;;0.40;;
19778;SDS011;10049;59.306;18.090;2022-09-03T09:29:23;0.52;;;0.30;;
19778;SDS011;10049;59.306;18.090;2022-09-03T09:31:53;0.55;;;0.30;;
19778;SDS011;10049;59.306;18.090;2022-09-03T09:34:23;0.28;;;0.28;;
19778;SDS011;10049;59.306;18.090;2022-09-03T09:36:52;0.30;;;0.20;;
19778;SDS011;10049;59.306;18.090;2022-09-03T09:39:22;1.08;;;0.40;;
19778;SDS011;10049;59.306;18.090;2022-09-03T09:41:56;0.25;;;0.25;;
19778;SDS011;10049;59.306;18.090;2022-09-03T09:44:24;2.22;;;0.35;;
19778;SDS011;10049;59.306;18.090;2022-09-03T09:47:00;0.20;;;0.20;;
19778;SDS011;10049;59.306;18.090;2022-09-03T09:49:33;0.32;;;0.32;;
19778;SDS011;10049;59.306;18.090;2022-09-03T09:52:05;0.32;;;0.22;;
19778;SDS011;10049;59.306;18.090;2022-09-03T09:54:36;0.32;;;0.32;;
19778;SDS011;10049;59.306;18.090;2022-09-03T09:57:04;0.85;;;0.30;;
19778;SDS011;10049;59.306;18.090;2022-09-03T09:59:34;0.30;;;0.30;;
19778;SDS011;10049;59.306;18.090;2022-09-03T10:02:08;0.57;;;0.30;;
19778;SDS011;10049;59.306;18.090;2022-09-03T10:04:39;0.20;;;0.20;;
19778;SDS011;10049;59.306;18.090;2022-09-03T10:07:24;0.40;;;0.30;;
19778;SDS011;10049;59.306;18.090;2022-09-03T10:09:56;0.20;;;0.20;;
19778;SDS011;10049;59.306;18.090;2022-09-03T10:12:27;0.30;;;0.30;;
19778;SDS011;10049;59.306;18.090;2022-09-03T10:15:01;0.38;;;0.38;;
19778;SDS011;10049;59.306;18.090;2022-09-03T10:17:32;0.63;;;0.30;;
19778;SDS011;10049;59.306;18.090;2022-09-03T10:20:04;0.57;;;0.40;;
19778;SDS011;10049;59.306;18.090;2022-09-03T10:22:51;0.30;;;0.30;;
19778;SDS011;10049;59.306;18.090;2022-09-03T10:25:20;0.68;;;0.40;;
19778;SDS011;10049;59.306;18.090;2022-09-03T10:27:49;0.15;;;0.15;;
19778;SDS011;10049;59.306;18.090;2022-09-03T10:30:18;0.20;;;0.20;;
19778;SDS011;10049;59.306;18.090;2022-09-03T10:32:47;0.28;;;0.20;;
19778;SDS011;10049;59.306;18.090;2022-09-03T10:35:26;0.40;;;0.20;;
19778;SDS011;10049;59.306;18.090;2022-09-03T10:38:01;0.30;;;0.30;;
19778;SDS011;10049;59.306;18.090;2022-09-03T10:40:33;1.23;;;0.60;;
19778;SDS011;10049;59.306;18.090;2022-09-03T10:43:07;1.08;;;0.98;;
19778;SDS011;10049;59.306;18.090;2022-09-03T10:45:37;2.78;;;1.30;;
19778;SDS011;10049;59.306;18.090;2022-09-03T10:48:17;0.63;;;0.63;;
19778;SDS011;10049;59.306;18.090;2022-09-03T10:50:52;2.10;;;0.40;;
19778;SDS011;10049;59.306;18.090;2022-09-03T10:53:35;2.13;;;0.65;;
19778;SDS011;10049;59.306;18.090;2022-09-03T10:56:08;0.20;;;0.20;;
19778;SDS011;10049;59.306;18.090;2022-09-03T10:58:47;1.02;;;0.30;;
19778;SDS011;10049;59.306;18.090;2022-09-03T11:01:23;0.32;;;0.30;;
19778;SDS011;10049;59.306;18.090;2022-09-03T11:03:55;0.30;;;0.20;;
19778;SDS011;10049;59.306;18.090;2022-09-03T11:06:33;0.95;;;0.40;;
19778;SDS011;10049;59.306;18.090;2022-09-03T11:09:04;0.10;;;0.10;;
19778;SDS011;10049;59.306;18.090;2022-09-03T11:11:36;0.50;;;0.30;;
19778;SDS011;10049;59.306;18.090;2022-09-03T11:14:07;0.20;;;0.20;;
19778;SDS011;10049;59.306;18.090;2022-09-03T11:16:36;0.45;;;0.32;;
19778;SDS011;10049;59.306;18.090;2022-09-03T11:19:05;0.30;;;0.30;;
19778;SDS011;10049;59.306;18.090;2022-09-03T11:21:37;0.25;;;0.25;;
19778;SDS011;10049;59.306;18.090;2022-09-03T11:24:07;1.17;;;0.20;;
19778;SDS011;10049;59.306;18.090;2022-09-03T11:26:36;0.20;;;0.20;;
19778;SDS011;10049;59.306;18.090;2022-09-03T11:29:06;0.50;;;0.30;;
19778;SDS011;10049;59.306;18.090;2022-09-03T11:31:48;0.30;;;0.30;;
19778;SDS011;10049;59.306;18.090;2022-09-03T11:34:26;0.30;;;0.30;;
19778;SDS011;10049;59.306;18.090;2022-09-03T11:37:17;0.20;;;0.20;;
19778;SDS011;10049;59.306;18.090;2022-09-03T11:39:52;0.20;;;0.20;;
19778;SDS011;10049;59.306;18.090;2022-09-03T11:42:24;1.35;;;0.80;;
19778;SDS011;10049;59.306;18.090;2022-09-03T11:44:58;0.30;;;0.30;;
19778;SDS011;10049;59.306;18.090;2022-09-03T11:47:35;0.30;;;0.30;;
19778;SDS011;10049;59.306;18.090;2022-09-03T11:50:15;0.35;;;0.32;;
19778;SDS011;10049;59.306;18.090;2022-09-03T11:52:46;0.45;;;0.30;;
19778;SDS011;10049;59.306;18.090;2022-09-03T11:55:26;1.10;;;0.20;;
19778;SDS011;10049;59.306;18.090;2022-09-03T11:57:58;0.25;;;0.22;;
19778;SDS011;10049;59.306;18.090;2022-09-03T12:00:26;3.30;;;0.20;;
19778;SDS011;10049;59.306;18.090;2022-09-03T12:02:55;0.15;;;0.15;;
19778;SDS011;10049;59.306;18.090;2022-09-03T12:05:25;0.47;;;0.35;;
19778;SDS011;10049;59.306;18.090;2022-09-03T12:07:59;0.20;;;0.20;;
19778;SDS011;10049;59.306;18.090;2022-09-03T12:10:33;0.20;;;0.20;;
19778;SDS011;10049;59.306;18.090;2022-09-03T12:13:17;0.30;;;0.30;;
19778;SDS011;10049;59.306;18.090;2022-09-03T12:18:35;0.25;;;0.20;;
19778;SDS011;10049;59.306;18.090;2022-09-03T12:21:05;0.73;;;0.20;;
19778;SDS011;10049;59.306;18.090;2022-09-03T12:23:41;0.20;;;0.20;;
19778;SDS011;10049;59.306;18.090;2022-09-03T12:26:10;1.67;;;0.30;;
19778;SDS011;10049;59.306;18.090;2022-09-03T12:28:40;0.20;;;0.20;;
19778;SDS011;10049;59.306;18.090;2022-09-03T12:31:09;0.82;;;0.28;;
19778;SDS011;10049;59.306;18.090;2022-09-03T12:33:48;0.20;;;0.20;;
19778;SDS011;10049;59.306;18.090;2022-09-03T12:36:18;0.20;;;0.20;;
19778;SDS011;10049;59.306;18.090;2022-09-03T12:38:47;0.20;;;0.20;;
19778;SDS011;10049;59.306;18.090;2022-09-03T12:41:24;0.95;;;0.30;;
19778;SDS011;10049;59.306;18.090;2022-09-03T12:43:53;0.30;;;0.20;;
19778;SDS011;10049;59.306;18.090;2022-09-03T12:46:24;0.28;;;0.28;;
19778;SDS011;10049;59.306;18.090;2022-09-03T12:48:55;0.28;;;0.28;;
19778;SDS011;10049;59.306;18.090;2022-09-03T12:51:29;0.20;;;0.20;;
19778;SDS011;10049;59.306;18.090;2022-09-03T12:53:58;0.73;;;0.55;;
19778;SDS011;10049;59.306;18.090;2022-09-03T12:56:26;0.57;;;0.52;;
19778;SDS011;10049;59.306;18.090;2022-09-03T12:58:59;0.93;;;0.50;;
19778;SDS011;10049;59.306;18.090;2022-09-03T13:01:29;0.32;;;0.30;;
19778;SDS011;10049;59.306;18.090;2022-09-03T13:03:58;1.45;;;0.30;;
19778;SDS011;10049;59.306;18.090;2022-09-03T13:06:45;0.30;;;0.30;;
19778;SDS011;10049;59.306;18.090;2022-09-03T13:09:20;8.05;;;0.88;;
19778;SDS011;10049;59.306;18.090;2022-09-03T13:11:50;10.57;;;1.25;;
19778;SDS011;10049;59.306;18.090;2022-09-03T13:14:19;0.30;;;0.30;;
19778;SDS011;10049;59.306;18.090;2022-09-03T13:16:54;1.00;;;0.40;;
19778;SDS011;10049;59.306;18.090;2022-09-03T13:19:25;1.38;;;0.60;;
19778;SDS011;10049;59.306;18.090;2022-09-03T13:21:59;23.25;;;1.95;;
19778;SDS011;10049;59.306;18.090;2022-09-03T13:24:42;0.65;;;0.40;;
19778;SDS011;10049;59.306;18.090;2022-09-03T13:27:16;0.95;;;0.63;;
19778;SDS011;10049;59.306;18.090;2022-09-03T13:29:50;0.38;;;0.38;;
19778;SDS011;10049;59.306;18.090;2022-09-03T13:32:25;0.95;;;0.50;;
19778;SDS011;10049;59.306;18.090;2022-09-03T13:34:56;0.40;;;0.40;;
19778;SDS011;10049;59.306;18.090;2022-09-03T13:37:25;1.85;;;0.40;;
19778;SDS011;10049;59.306;18.090;2022-09-03T13:39:57;0.75;;;0.30;;
19778;SDS011;10049;59.306;18.090;2022-09-03T13:42:26;0.20;;;0.20;;
19778;SDS011;10049;59.306;18.090;2022-09-03T13:45:02;1.58;;;0.20;;
19778;SDS011;10049;59.306;18.090;2022-09-03T13:47:34;0.30;;;0.30;;
19778;SDS011;10049;59.306;18.090;2022-09-03T13:50:06;0.75;;;0.40;;
19778;SDS011;10049;59.306;18.090;2022-09-03T13:52:53;0.25;;;0.20;;
19778;SDS011;10049;59.306;18.090;2022-09-03T13:55:27;0.20;;;0.20;;
19778;SDS011;10049;59.306;18.090;2022-09-03T13:58:00;0.30;;;0.30;;
19778;SDS011;10049;59.306;18.090;2022-09-03T14:00:32;1.85;;;0.20;;
19778;SDS011;10049;59.306;18.090;2022-09-03T14:03:06;1.25;;;0.30;;
19778;SDS011;10049;59.306;18.090;2022-09-03T14:05:46;0.30;;;0.20;;
19778;SDS011;10049;59.306;18.090;2022-09-03T14:08:19;1.15;;;0.20;;
19778;SDS011;10049;59.306;18.090;2022-09-03T14:10:52;13.73;;;0.80;;
19778;SDS011;10049;59.306;18.090;2022-09-03T14:13:23;2.20;;;0.35;;
19778;SDS011;10049;59.306;18.090;2022-09-03T14:15:57;0.43;;;0.43;;
19778;SDS011;10049;59.306;18.090;2022-09-03T14:18:32;0.40;;;0.40;;
19778;SDS011;10049;59.306;18.090;2022-09-03T14:21:02;0.40;;;0.40;;
19778;SDS011;10049;59.306;18.090;2022-09-03T14:23:33;0.63;;;0.30;;
19778;SDS011;10049;59.306;18.090;2022-09-03T14:26:04;0.30;;;0.20;;
19778;SDS011;10049;59.306;18.090;2022-09-03T14:28:33;0.65;;;0.30;;
19778;SDS011;10049;59.306;18.090;2022-09-03T14:31:04;0.25;;;0.20;;
19778;SDS011;10049;59.306;18.090;2022-09-03T14:33:35;0.95;;;0.20;;
19778;SDS011;10049;59.306;18.090;2022-09-03T14:36:08;1.05;;;0.30;;
19778;SDS011;10049;59.306;18.090;2022-09-03T14:38:41;0.55;;;0.28;;
19778;SDS011;10049;59.306;18.090;2022-09-03T14:41:20;0.30;;;0.30;;
19778;SDS011;10049;59.306;18.090;2022-09-03T14:46:50;0.68;;;0.30;;
19778;SDS011;10049;59.306;18.090;2022-09-03T14:49:25;1.20;;;0.30;;
19778;SDS011;10049;59.306;18.090;2022-09-03T14:52:06;0.30;;;0.30;;
19778;SDS011;10049;59.306;18.090;2022-09-03T14:54:58;1.38;;;0.30;;
19778;SDS011;10049;59.306;18.090;2022-09-03T15:00:25;0.50;;;0.50;;
19778;SDS011;10049;59.306;18.090;2022-09-03T15:03:00;0.93;;;0.30;;
19778;SDS011;10049;59.306;18.090;2022-09-03T15:05:43;0.90;;;0.20;;
19778;SDS011;10049;59.306;18.090;2022-09-03T15:08:16;0.40;;;0.40;;
19778;SDS011;10049;59.306;18.090;2022-09-03T15:10:51;0.40;;;0.40;;
19778;SDS011;10049;59.306;18.090;2022-09-03T15:13:21;0.85;;;0.30;;
19778;SDS011;10049;59.306;18.090;2022-09-03T15:15:57;0.75;;;0.20;;
19778;SDS011;10049;59.306;18.090;2022-09-03T15:18:29;1.02;;;0.30;;
19778;SDS011;10049;59.306;18.090;2022-09-03T15:21:00;0.90;;;0.40;;
19778;SDS011;10049;59.306;18.090;2022-09-03T15:23:39;3.65;;;0.47;;
19778;SDS011;10049;59.306;18.090;2022-09-03T15:26:18;0.70;;;0.43;;
19778;SDS011;10049;59.306;18.090;2022-09-03T15:28:55;6.13;;;1.90;;
19778;SDS011;10049;59.306;18.090;2022-09-03T15:31:30;1.80;;;1.35;;
19778;SDS011;10049;59.306;18.090;2022-09-03T15:34:06;1.70;;;1.58;;
19778;SDS011;10049;59.306;18.090;2022-09-03T15:36:39;0.70;;;0.70;;
19778;SDS011;10049;59.306;18.090;2022-09-03T15:39:08;0.98;;;0.82;;
19778;SDS011;10049;59.306;18.090;2022-09-03T15:41:39;0.45;;;0.45;;
19778;SDS011;10049;59.306;18.090;2022-09-03T15:44:10;0.22;;;0.20;;
19778;SDS011;10049;59.306;18.090;2022-09-03T15:46:49;0.30;;;0.30;;
19778;SDS011;10049;59.306;18.090;2022-09-03T15:49:22;0.20;;;0.20;;
19778;SDS011;10049;59.306;18.090;2022-09-03T15:51:56;0.45;;;0.40;;
19778;SDS011;10049;59.306;18.090;2022-09-03T15:54:30;1.33;;;0.40;;
19778;SDS011;10049;59.306;18.090;2022-09-03T15:57:00;0.60;;;0.38;;
19778;SDS011;10049;59.306;18.090;2022-09-03T15:59:31;1.15;;;0.40;;
19778;SDS011;10049;59.306;18.090;2022-09-03T16:02:06;0.70;;;0.70;;
19778;SDS011;10049;59.306;18.090;2022-09-03T16:04:47;0.73;;;0.45;;
19778;SDS011;10049;59.306;18.090;2022-09-03T16:07:20;1.23;;;0.43;;
19778;SDS011;10049;59.306;18.090;2022-09-03T16:09:53;2.97;;;0.60;;
19778;SDS011;10049;59.306;18.090;2022-09-03T16:12:26;0.95;;;0.88;;
19778;SDS011;10049;59.306;18.090;2022-09-03T16:14:57;0.70;;;0.70;;
19778;SDS011;10049;59.306;18.090;2022-09-03T16:17:30;1.02;;;0.60;;
19778;SDS011;10049;59.306;18.090;2022-09-03T16:19:59;0.70;;;0.60;;
19778;SDS011;10049;59.306;18.090;2022-09-03T16:22:31;0.60;;;0.60;;
19778;SDS011;10049;59.306;18.090;2022-09-03T16:25:00;0.65;;;0.47;;
19778;SDS011;10049;59.306;18.090;2022-09-03T16:27:31;0.40;;;0.40;;
19778;SDS011;10049;59.306;18.090;2022-09-03T16:30:06;0.35;;;0.35;;
19778;SDS011;10049;59.306;18.090;2022-09-03T16:32:40;2.13;;;0.50;;
19778;SDS011;10049;59.306;18.090;2022-09-03T16:35:13;0.30;;;0.30;;
19778;SDS011;10049;59.306;18.090;2022-09-03T16:37:45;0.52;;;0.40;;
19778;SDS011;10049;59.306;18.090;2022-09-03T16:40:19;0.30;;;0.30;;
19778;SDS011;10049;59.306;18.090;2022-09-03T16:42:51;0.77;;;0.57;;
19778;SDS011;10049;59.306;18.090;2022-09-03T16:45:23;0.82;;;0.20;;
19778;SDS011;10049;59.306;18.090;2022-09-03T16:48:19;0.40;;;0.40;;
19778;SDS011;10049;59.306;18.090;2022-09-03T16:51:04;0.50;;;0.50;;
19778;SDS011;10049;59.306;18.090;2022-09-03T16:53:37;0.77;;;0.50;;
19778;SDS011;10049;59.306;18.090;2022-09-03T16:56:12;0.52;;;0.50;;